sensor_id;sensor_type;location;lat;lon;timestamp;pressure;altitude;pressure_sealevel;temperature;humidity
23363;BME280;11853;48.080;11.960;2023-08-08T00:01:51;95074.69;;;12.89;100.00
23363;BME280;11853;48.080;11.960;2023-08-08T00:04:16;95077.66;;;12.85;100.00
23363;BME280;11853;48.080;11.960;2023-08-08T00:06:42;95074.69;;;12.89;100.00
23363;BME280;11853;48.080;11.960;2023-08-08T00:09:08;95073.31;;;12.84;100.00
23363;BME280;11853;48.080;11.960;2023-08-08T00:11:34;95067.50;;;12.81;100.00
23363;BME280;11853;48.080;11.960;2023-08-08T00:14:00;95060.50;;;12.80;100.00
23363;BME280;11853;48.080;11.960;2023-08-08T00:16:25;95063.31;;;12.78;100.00
23363;BME280;11853;48.080;11.960;2023-08-08T00:18:51;95064.84;;;12.81;100.00
23363;BME280;11853;48.080;11.960;2023-08-08T00:21:19;95056.47;;;12.76;100.00
23363;BME280;11853;48.080;11.960;2023-08-08T00:23:45;95065.97;;;12.78;100.00
23363;BME280;11853;48.080;11.960;2023-08-08T00:26:10;95067.31;;;12.74;100.00
23363;BME280;11853;48.080;11.960;2023-08-08T00:28:36;95066.47;;;12.74;100.00
23363;BME280;11853;48.080;11.960;2023-08-08T00:31:02;95058.13;;;12.69;100.00
23363;BME280;11853;48.080;11.960;2023-08-08T00:33:27;95064.28;;;12.69;100.00
23363;BME280;11853;48.080;11.960;2023-08-08T00:35:53;95064.97;;;12.71;100.00
23363;BME280;11853;48.080;11.960;2023-08-08T00:38:18;95051.66;;;12.71;100.00
23363;BME280;11853;48.080;11.960;2023-08-08T00:40:44;95054.81;;;12.75;100.00
23363;BME280;11853;48.080;11.960;2023-08-08T00:43:10;95055.66;;;12.75;100.00
23363;BME280;11853;48.080;11.960;2023-08-08T00:45:36;95049.03;;;12.79;100.00
23363;BME280;11853;48.080;11.960;2023-08-08T00:48:02;95050.53;;;12.82;100.00
23363;BME280;11853;48.080;11.960;2023-08-08T00:50:28;95046.69;;;12.84;99.97
23363;BME280;11853;48.080;11.960;2023-08-08T00:52:54;95055.00;;;12.81;100.00
23363;BME280;11853;48.080;11.960;2023-08-08T00:55:19;95046.38;;;12.88;100.00
23363;BME280;11853;48.080;11.960;2023-08-08T00:57:46;95042.88;;;12.87;100.00
23363;BME280;11853;48.080;11.960;2023-08-08T01:00:11;95039.38;;;12.87;99.26
23363;BME280;11853;48.080;11.960;2023-08-08T01:02:38;95044.38;;;12.90;98.84
23363;BME280;11853;48.080;11.960;2023-08-08T01:05:04;95040.41;;;12.94;98.98
23363;BME280;11853;48.080;11.960;2023-08-08T01:07:30;95045.41;;;12.97;98.53
23363;BME280;11853;48.080;11.960;2023-08-08T01:10:06;95036.44;;;12.98;97.67
23363;BME280;11853;48.080;11.960;2023-08-08T01:12:40;95030.09;;;12.99;97.84
23363;BME280;11853;48.080;11.960;2023-08-08T01:15:07;95031.09;;;12.98;97.63
23363;BME280;11853;48.080;11.960;2023-08-08T01:17:35;95022.28;;;12.97;98.26
23363;BME280;11853;48.080;11.960;2023-08-08T01:20:03;95031.78;;;13.00;98.12
23363;BME280;11853;48.080;11.960;2023-08-08T01:22:45;95021.59;;;12.95;97.46
23363;BME280;11853;48.080;11.960;2023-08-08T01:25:13;95020.13;;;13.01;97.89
23363;BME280;11853;48.080;11.960;2023-08-08T01:27:39;95023.78;;;13.00;97.97
23363;BME280;11853;48.080;11.960;2023-08-08T01:30:06;95018.13;;;13.03;97.60
23363;BME280;11853;48.080;11.960;2023-08-08T01:32:32;95021.97;;;13.08;98.04
23363;BME280;11853;48.080;11.960;2023-08-08T01:34:58;95014.13;;;13.07;98.38
23363;BME280;11853;48.080;11.960;2023-08-08T01:37:36;95016.78;;;13.07;97.00
23363;BME280;11853;48.080;11.960;2023-08-08T01:40:06;95019.47;;;13.07;96.90
23363;BME280;11853;48.080;11.960;2023-08-08T01:42:32;95012.81;;;13.03;97.56
23363;BME280;11853;48.080;11.960;2023-08-08T01:44:59;95014.47;;;13.04;96.71
23363;BME280;11853;48.080;11.960;2023-08-08T01:47:24;95016.78;;;13.07;96.90
23363;BME280;11853;48.080;11.960;2023-08-08T01:49:50;95010.16;;;13.03;97.27
23363;BME280;11853;48.080;11.960;2023-08-08T01:52:15;95013.50;;;13.05;96.85
23363;BME280;11853;48.080;11.960;2023-08-08T01:54:41;95003.66;;;13.05;97.06
23363;BME280;11853;48.080;11.960;2023-08-08T01:57:08;95011.13;;;13.10;96.00
23363;BME280;11853;48.080;11.960;2023-08-08T01:59:33;95005.78;;;13.02;96.85
23363;BME280;11853;48.080;11.960;2023-08-08T02:01:59;95006.97;;;12.99;96.76
23363;BME280;11853;48.080;11.960;2023-08-08T02:04:25;95003.47;;;12.99;97.51
23363;BME280;11853;48.080;11.960;2023-08-08T02:06:50;94996.16;;;13.01;97.52
23363;BME280;11853;48.080;11.960;2023-08-08T02:09:16;95004.97;;;13.01;97.31
23363;BME280;11853;48.080;11.960;2023-08-08T02:11:42;95008.97;;;12.97;97.58
23363;BME280;11853;48.080;11.960;2023-08-08T02:14:07;95008.28;;;12.95;97.13
23363;BME280;11853;48.080;11.960;2023-08-08T02:16:33;94998.47;;;12.96;97.54
23363;BME280;11853;48.080;11.960;2023-08-08T02:19:00;95000.97;;;12.97;97.21
23363;BME280;11853;48.080;11.960;2023-08-08T02:21:25;95006.97;;;12.99;97.75
23363;BME280;11853;48.080;11.960;2023-08-08T02:23:51;95007.63;;;13.01;97.79
23363;BME280;11853;48.080;11.960;2023-08-08T02:26:17;95003.47;;;12.99;97.64
23363;BME280;11853;48.080;11.960;2023-08-08T02:28:42;95009.78;;;12.98;97.68
23363;BME280;11853;48.080;11.960;2023-08-08T02:31:08;95004.78;;;12.95;97.86
23363;BME280;11853;48.080;11.960;2023-08-08T02:33:34;94992.81;;;12.91;97.85
23363;BME280;11853;48.080;11.960;2023-08-08T02:36:00;95001.31;;;12.94;97.89
23363;BME280;11853;48.080;11.960;2023-08-08T02:38:25;95000.28;;;12.87;98.51
23363;BME280;11853;48.080;11.960;2023-08-08T02:40:51;94991.47;;;12.87;97.89
23363;BME280;11853;48.080;11.960;2023-08-08T02:43:16;94989.81;;;12.85;98.10
23363;BME280;11853;48.080;11.960;2023-08-08T02:45:42;94994.63;;;12.82;97.79
23363;BME280;11853;48.080;11.960;2023-08-08T02:48:08;94990.78;;;12.76;97.72
23363;BME280;11853;48.080;11.960;2023-08-08T02:50:33;94982.13;;;12.74;98.01
23363;BME280;11853;48.080;11.960;2023-08-08T02:52:59;94992.78;;;12.74;97.72
23363;BME280;11853;48.080;11.960;2023-08-08T02:55:25;94987.13;;;12.77;97.38
23363;BME280;11853;48.080;11.960;2023-08-08T02:57:50;94977.13;;;12.71;98.07
23363;BME280;11853;48.080;11.960;2023-08-08T03:00:16;94982.44;;;12.71;98.14
23363;BME280;11853;48.080;11.960;2023-08-08T03:02:42;94998.06;;;12.66;97.65
23363;BME280;11853;48.080;11.960;2023-08-08T03:05:08;94999.56;;;12.69;98.37
23363;BME280;11853;48.080;11.960;2023-08-08T03:07:34;94990.41;;;12.63;98.08
23363;BME280;11853;48.080;11.960;2023-08-08T03:09:59;94983.44;;;12.62;97.84
23363;BME280;11853;48.080;11.960;2023-08-08T03:12:25;94995.72;;;12.63;97.65
23363;BME280;11853;48.080;11.960;2023-08-08T03:14:51;94991.06;;;12.57;98.31
23363;BME280;11853;48.080;11.960;2023-08-08T03:17:16;94987.72;;;12.55;98.31
23363;BME280;11853;48.080;11.960;2023-08-08T03:19:42;94988.88;;;12.52;98.13
23363;BME280;11853;48.080;11.960;2023-08-08T03:22:07;94987.22;;;12.51;98.24
23363;BME280;11853;48.080;11.960;2023-08-08T03:24:33;94993.66;;;12.40;98.25
23363;BME280;11853;48.080;11.960;2023-08-08T03:26:58;94992.50;;;12.43;98.70
23363;BME280;11853;48.080;11.960;2023-08-08T03:29:24;95000.31;;;12.45;98.35
23363;BME280;11853;48.080;11.960;2023-08-08T03:31:50;94996.81;;;12.44;98.13
23363;BME280;11853;48.080;11.960;2023-08-08T03:34:15;94999.66;;;12.43;97.57
23363;BME280;11853;48.080;11.960;2023-08-08T03:36:41;94992.00;;;12.39;97.69
23363;BME280;11853;48.080;11.960;2023-08-08T03:39:07;95002.31;;;12.43;97.50
23363;BME280;11853;48.080;11.960;2023-08-08T03:41:33;94996.81;;;12.44;97.71
23363;BME280;11853;48.080;11.960;2023-08-08T03:43:59;94993.50;;;12.42;97.21
23363;BME280;11853;48.080;11.960;2023-08-08T03:46:24;94994.00;;;12.46;97.49
23363;BME280;11853;48.080;11.960;2023-08-08T03:48:50;94990.34;;;12.47;97.24
23363;BME280;11853;48.080;11.960;2023-08-08T03:51:16;94988.03;;;12.52;97.31
23363;BME280;11853;48.080;11.960;2023-08-08T03:53:41;94990.38;;;12.55;97.31
23363;BME280;11853;48.080;11.960;2023-08-08T03:56:07;94979.06;;;12.53;97.71
23363;BME280;11853;48.080;11.960;2023-08-08T03:58:32;94987.72;;;12.55;98.11
23363;BME280;11853;48.080;11.960;2023-08-08T04:00:58;94986.72;;;12.56;97.49
23363;BME280;11853;48.080;11.960;2023-08-08T04:03:24;94996.19;;;12.58;98.00
23363;BME280;11853;48.080;11.960;2023-08-08T04:05:49;94996.38;;;12.57;98.92
23363;BME280;11853;48.080;11.960;2023-08-08T04:08:15;94994.38;;;12.59;98.90
23363;BME280;11853;48.080;11.960;2023-08-08T04:10:41;95005.34;;;12.56;98.93
23363;BME280;11853;48.080;11.960;2023-08-08T04:13:07;95011.19;;;12.59;99.55
23363;BME280;11853;48.080;11.960;2023-08-08T04:15:32;95007.38;;;12.62;99.19
23363;BME280;11853;48.080;11.960;2023-08-08T04:17:58;95001.72;;;12.65;98.71
23363;BME280;11853;48.080;11.960;2023-08-08T04:20:24;95007.88;;;12.66;99.73
23363;BME280;11853;48.080;11.960;2023-08-08T04:22:49;95017.53;;;12.67;99.48
23363;BME280;11853;48.080;11.960;2023-08-08T04:25:15;95011.06;;;12.69;99.06
23363;BME280;11853;48.080;11.960;2023-08-08T04:27:41;95009.41;;;12.76;99.61
23363;BME280;11853;48.080;11.960;2023-08-08T04:30:07;95011.56;;;12.81;99.27
23363;BME280;11853;48.080;11.960;2023-08-08T04:32:32;95011.44;;;12.82;98.78
23363;BME280;11853;48.080;11.960;2023-08-08T04:34:58;95006.09;;;12.82;98.78
23363;BME280;11853;48.080;11.960;2023-08-08T04:37:24;95002.44;;;12.83;99.03
23363;BME280;11853;48.080;11.960;2023-08-08T04:39:49;95000.78;;;12.82;98.83
23363;BME280;11853;48.080;11.960;2023-08-08T04:42:15;95007.75;;;12.83;98.82
23363;BME280;11853;48.080;11.960;2023-08-08T04:44:40;95006.59;;;12.86;98.92
23363;BME280;11853;48.080;11.960;2023-08-08T04:47:06;95004.44;;;12.90;98.73
23363;BME280;11853;48.080;11.960;2023-08-08T04:49:32;95014.13;;;12.91;98.65
23363;BME280;11853;48.080;11.960;2023-08-08T04:51:57;95014.13;;;12.91;98.75
23363;BME280;11853;48.080;11.960;2023-08-08T04:54:23;95011.97;;;12.94;99.20
23363;BME280;11853;48.080;11.960;2023-08-08T04:56:48;95009.97;;;12.96;99.11
23363;BME280;11853;48.080;11.960;2023-08-08T04:59:14;95011.44;;;12.99;99.18
23363;BME280;11853;48.080;11.960;2023-08-08T05:01:40;95013.63;;;13.03;99.27
23363;BME280;11853;48.080;11.960;2023-08-08T05:04:05;95010.50;;;13.08;99.79
23363;BME280;11853;48.080;11.960;2023-08-08T05:06:31;95014.81;;;13.09;99.87
23363;BME280;11853;48.080;11.960;2023-08-08T05:08:57;95015.81;;;13.08;99.78
23363;BME280;11853;48.080;11.960;2023-08-08T05:11:23;95023.13;;;13.06;99.09
23363;BME280;11853;48.080;11.960;2023-08-08T05:13:49;95012.16;;;13.09;99.25
23363;BME280;11853;48.080;11.960;2023-08-08T05:16:14;95016.00;;;13.15;99.57
23363;BME280;11853;48.080;11.960;2023-08-08T05:18:40;95013.50;;;13.21;99.50
23363;BME280;11853;48.080;11.960;2023-08-08T05:21:06;95007.19;;;13.22;98.39
23363;BME280;11853;48.080;11.960;2023-08-08T05:23:32;95016.16;;;13.21;97.25
23363;BME280;11853;48.080;11.960;2023-08-08T05:25:58;95020.84;;;13.27;97.19
23363;BME280;11853;48.080;11.960;2023-08-08T05:28:23;95027.53;;;13.32;98.11
23363;BME280;11853;48.080;11.960;2023-08-08T05:30:49;95023.22;;;13.31;97.80
23363;BME280;11853;48.080;11.960;2023-08-08T05:33:15;95012.56;;;13.31;97.22
23363;BME280;11853;48.080;11.960;2023-08-08T05:35:40;95008.69;;;13.33;97.70
23363;BME280;11853;48.080;11.960;2023-08-08T05:38:06;95015.53;;;13.44;97.28
23363;BME280;11853;48.080;11.960;2023-08-08T05:40:34;95015.53;;;13.52;97.72
23363;BME280;11853;48.080;11.960;2023-08-08T05:43:02;95015.41;;;13.54;98.82
23363;BME280;11853;48.080;11.960;2023-08-08T05:45:27;95014.53;;;13.53;98.70
23363;BME280;11853;48.080;11.960;2023-08-08T05:47:53;95010.84;;;13.70;96.49
23363;BME280;11853;48.080;11.960;2023-08-08T05:50:20;95011.88;;;13.78;96.25
23363;BME280;11853;48.080;11.960;2023-08-08T05:52:45;95012.88;;;13.77;96.29
23363;BME280;11853;48.080;11.960;2023-08-08T05:55:11;95020.88;;;13.77;95.74
23363;BME280;11853;48.080;11.960;2023-08-08T05:57:37;95023.22;;;13.80;96.50
23363;BME280;11853;48.080;11.960;2023-08-08T06:00:04;95025.19;;;13.86;96.82
23363;BME280;11853;48.080;11.960;2023-08-08T06:02:37;95022.19;;;13.89;95.47
23363;BME280;11853;48.080;11.960;2023-08-08T06:05:07;95017.53;;;13.91;95.37
23363;BME280;11853;48.080;11.960;2023-08-08T06:07:32;95021.16;;;13.98;94.49
23363;BME280;11853;48.080;11.960;2023-08-08T06:09:58;95021.84;;;14.00;94.50
23363;BME280;11853;48.080;11.960;2023-08-08T06:12:23;95022.47;;;14.10;94.03
23363;BME280;11853;48.080;11.960;2023-08-08T06:14:49;95026.13;;;14.17;93.29
23363;BME280;11853;48.080;11.960;2023-08-08T06:17:14;95030.78;;;14.32;93.60
23363;BME280;11853;48.080;11.960;2023-08-08T06:19:40;95032.25;;;14.42;92.44
23363;BME280;11853;48.080;11.960;2023-08-08T06:22:06;95022.72;;;14.48;92.95
23363;BME280;11853;48.080;11.960;2023-08-08T06:24:31;95016.19;;;14.59;91.85
23363;BME280;11853;48.080;11.960;2023-08-08T06:26:57;95028.34;;;14.70;91.98
23363;BME280;11853;48.080;11.960;2023-08-08T06:29:23;95024.66;;;14.71;91.37
23363;BME280;11853;48.080;11.960;2023-08-08T06:31:48;95032.16;;;14.75;91.80
23363;BME280;11853;48.080;11.960;2023-08-08T06:34:14;95020.50;;;14.99;90.67
23363;BME280;11853;48.080;11.960;2023-08-08T06:36:40;95027.34;;;15.25;90.43
23363;BME280;11853;48.080;11.960;2023-08-08T06:39:06;95022.16;;;15.31;88.67
23363;BME280;11853;48.080;11.960;2023-08-08T06:41:32;95019.66;;;15.30;89.03
23363;BME280;11853;48.080;11.960;2023-08-08T06:43:58;95022.38;;;15.22;88.29
23363;BME280;11853;48.080;11.960;2023-08-08T06:46:23;95019.88;;;15.20;89.31
23363;BME280;11853;48.080;11.960;2023-08-08T06:48:50;95018.22;;;15.19;88.54
23363;BME280;11853;48.080;11.960;2023-08-08T06:51:18;95018.94;;;15.36;89.21
23363;BME280;11853;48.080;11.960;2023-08-08T06:53:43;95014.59;;;15.58;89.36
23363;BME280;11853;48.080;11.960;2023-08-08T06:56:09;95008.38;;;15.66;86.83
23363;BME280;11853;48.080;11.960;2023-08-08T06:58:35;95017.34;;;15.73;87.43
23363;BME280;11853;48.080;11.960;2023-08-08T07:01:00;95023.47;;;15.96;87.95
23363;BME280;11853;48.080;11.960;2023-08-08T07:03:29;95020.28;;;16.16;87.44
23363;BME280;11853;48.080;11.960;2023-08-08T07:05:55;95012.28;;;16.31;85.88
23363;BME280;11853;48.080;11.960;2023-08-08T07:08:24;95016.72;;;16.38;83.88
23363;BME280;11853;48.080;11.960;2023-08-08T07:10:50;95008.78;;;16.60;84.76
23363;BME280;11853;48.080;11.960;2023-08-08T07:13:16;95008.22;;;16.79;85.42
23363;BME280;11853;48.080;11.960;2023-08-08T07:15:41;95011.06;;;16.93;83.92
23363;BME280;11853;48.080;11.960;2023-08-08T07:18:07;94999.31;;;17.08;85.10
23363;BME280;11853;48.080;11.960;2023-08-08T07:20:33;95003.25;;;17.13;82.67
23363;BME280;11853;48.080;11.960;2023-08-08T07:22:59;95001.19;;;17.29;84.40
23363;BME280;11853;48.080;11.960;2023-08-08T07:25:25;94998.44;;;17.44;83.07
23363;BME280;11853;48.080;11.960;2023-08-08T07:27:51;94993.78;;;17.53;79.69
23363;BME280;11853;48.080;11.960;2023-08-08T07:30:16;94984.00;;;17.45;78.84
23363;BME280;11853;48.080;11.960;2023-08-08T07:32:42;94983.94;;;17.39;77.40
23363;BME280;11853;48.080;11.960;2023-08-08T07:35:08;94982.53;;;17.43;77.70
23363;BME280;11853;48.080;11.960;2023-08-08T07:37:34;94979.72;;;17.51;78.04
23363;BME280;11853;48.080;11.960;2023-08-08T07:40:00;94980.66;;;17.65;80.31
23363;BME280;11853;48.080;11.960;2023-08-08T07:42:26;94984.69;;;17.75;79.15
23363;BME280;11853;48.080;11.960;2023-08-08T07:44:51;94976.72;;;17.82;78.64
23363;BME280;11853;48.080;11.960;2023-08-08T07:47:17;94985.53;;;17.97;81.17
23363;BME280;11853;48.080;11.960;2023-08-08T07:49:42;94983.53;;;18.06;79.92
23363;BME280;11853;48.080;11.960;2023-08-08T07:52:08;94986.66;;;18.16;79.87
23363;BME280;11853;48.080;11.960;2023-08-08T07:54:34;94989.19;;;18.18;79.32
23363;BME280;11853;48.080;11.960;2023-08-08T07:57:00;94988.38;;;18.24;78.51
23363;BME280;11853;48.080;11.960;2023-08-08T07:59:25;94977.25;;;18.27;78.16
23363;BME280;11853;48.080;11.960;2023-08-08T08:01:52;94976.03;;;18.30;78.32
23363;BME280;11853;48.080;11.960;2023-08-08T08:04:17;94980.22;;;18.39;79.74
23363;BME280;11853;48.080;11.960;2023-08-08T08:06:43;94975.31;;;18.49;79.85
23363;BME280;11853;48.080;11.960;2023-08-08T08:09:09;94978.63;;;18.51;77.17
23363;BME280;11853;48.080;11.960;2023-08-08T08:11:34;94972.06;;;18.60;78.07
23363;BME280;11853;48.080;11.960;2023-08-08T08:14:00;94969.59;;;18.65;74.09
23363;BME280;11853;48.080;11.960;2023-08-08T08:16:25;94973.75;;;18.68;73.97
23363;BME280;11853;48.080;11.960;2023-08-08T08:18:51;94971.97;;;18.75;73.13
23363;BME280;11853;48.080;11.960;2023-08-08T08:21:17;94961.84;;;18.84;74.35
23363;BME280;11853;48.080;11.960;2023-08-08T08:23:43;94958.38;;;18.90;75.70
23363;BME280;11853;48.080;11.960;2023-08-08T08:26:09;94953.22;;;19.02;72.42
23363;BME280;11853;48.080;11.960;2023-08-08T08:28:35;94958.19;;;18.92;72.87
23363;BME280;11853;48.080;11.960;2023-08-08T08:31:07;94965.19;;;18.93;73.24
23363;BME280;11853;48.080;11.960;2023-08-08T08:33:34;94950.69;;;18.87;72.00
23363;BME280;11853;48.080;11.960;2023-08-08T08:36:00;94959.81;;;18.86;71.52
23363;BME280;11853;48.080;11.960;2023-08-08T08:38:25;94951.75;;;18.93;73.95
23363;BME280;11853;48.080;11.960;2023-08-08T08:40:54;94954.06;;;19.02;73.39
23363;BME280;11853;48.080;11.960;2023-08-08T08:43:21;94956.56;;;19.10;73.57
23363;BME280;11853;48.080;11.960;2023-08-08T08:45:53;94960.94;;;19.18;72.96
23363;BME280;11853;48.080;11.960;2023-08-08T08:48:20;94945.63;;;19.25;74.13
23363;BME280;11853;48.080;11.960;2023-08-08T08:50:52;94946.91;;;19.36;71.95
23363;BME280;11853;48.080;11.960;2023-08-08T08:53:18;94938.00;;;19.35;69.79
23363;BME280;11853;48.080;11.960;2023-08-08T08:55:44;94939.69;;;19.43;70.54
23363;BME280;11853;48.080;11.960;2023-08-08T08:58:14;94935.31;;;19.42;70.63
23363;BME280;11853;48.080;11.960;2023-08-08T09:00:40;94936.97;;;19.43;69.53
23363;BME280;11853;48.080;11.960;2023-08-08T09:03:07;94943.16;;;19.37;67.76
23363;BME280;11853;48.080;11.960;2023-08-08T09:05:33;94932.63;;;19.29;66.78
23363;BME280;11853;48.080;11.960;2023-08-08T09:08:00;94935.50;;;19.34;69.18
23363;BME280;11853;48.080;11.960;2023-08-08T09:10:26;94935.72;;;19.39;69.88
23363;BME280;11853;48.080;11.960;2023-08-08T09:12:52;94923.53;;;19.43;70.44
23363;BME280;11853;48.080;11.960;2023-08-08T09:15:18;94927.03;;;19.57;70.65
23363;BME280;11853;48.080;11.960;2023-08-08T09:17:44;94927.50;;;19.67;71.20
23363;BME280;11853;48.080;11.960;2023-08-08T09:20:12;94928.09;;;19.76;68.35
23363;BME280;11853;48.080;11.960;2023-08-08T09:22:38;94932.66;;;19.82;68.66
23363;BME280;11853;48.080;11.960;2023-08-08T09:25:05;94924.59;;;19.82;67.00
23363;BME280;11853;48.080;11.960;2023-08-08T09:27:31;94928.13;;;19.89;68.87
23363;BME280;11853;48.080;11.960;2023-08-08T09:29:57;94923.75;;;19.88;67.01
23363;BME280;11853;48.080;11.960;2023-08-08T09:32:28;94923.31;;;19.91;68.74
23363;BME280;11853;48.080;11.960;2023-08-08T09:34:55;94923.56;;;19.90;66.65
23363;BME280;11853;48.080;11.960;2023-08-08T09:37:27;94911.53;;;19.79;65.68
23363;BME280;11853;48.080;11.960;2023-08-08T09:40:01;94916.28;;;19.77;67.55
23363;BME280;11853;48.080;11.960;2023-08-08T09:42:28;94917.75;;;19.86;67.53
23363;BME280;11853;48.080;11.960;2023-08-08T09:44:57;94911.75;;;19.97;69.79
23363;BME280;11853;48.080;11.960;2023-08-08T09:47:22;94906.97;;;20.06;67.24
23363;BME280;11853;48.080;11.960;2023-08-08T09:49:48;94911.31;;;20.07;67.57
23363;BME280;11853;48.080;11.960;2023-08-08T09:52:15;94899.94;;;19.98;65.86
23363;BME280;11853;48.080;11.960;2023-08-08T09:54:41;94908.38;;;20.09;65.06
23363;BME280;11853;48.080;11.960;2023-08-08T09:57:07;94901.97;;;20.10;61.43
23363;BME280;11853;48.080;11.960;2023-08-08T09:59:34;94905.69;;;20.09;65.33
23363;BME280;11853;48.080;11.960;2023-08-08T10:02:01;94905.72;;;20.02;64.85
23363;BME280;11853;48.080;11.960;2023-08-08T10:04:27;94896.38;;;20.05;65.84
23363;BME280;11853;48.080;11.960;2023-08-08T10:06:53;94900.31;;;20.09;62.84
23363;BME280;11853;48.080;11.960;2023-08-08T10:09:19;94895.13;;;20.14;64.13
23363;BME280;11853;48.080;11.960;2023-08-08T10:11:45;94899.88;;;20.18;64.38
23363;BME280;11853;48.080;11.960;2023-08-08T10:14:12;94891.19;;;20.16;64.26
23363;BME280;11853;48.080;11.960;2023-08-08T10:16:41;94894.91;;;20.22;64.67
23363;BME280;11853;48.080;11.960;2023-08-08T10:19:09;94889.69;;;20.27;65.82
23363;BME280;11853;48.080;11.960;2023-08-08T10:21:36;94890.13;;;20.24;65.13
23363;BME280;11853;48.080;11.960;2023-08-08T10:24:09;94894.09;;;20.15;64.92
23363;BME280;11853;48.080;11.960;2023-08-08T10:26:57;94905.94;;;20.00;63.53
23363;BME280;11853;48.080;11.960;2023-08-08T10:29:26;94898.66;;;19.94;64.17
23363;BME280;11853;48.080;11.960;2023-08-08T10:32:06;94898.66;;;19.94;64.09
23363;BME280;11853;48.080;11.960;2023-08-08T10:34:43;94901.56;;;19.99;64.51
23363;BME280;11853;48.080;11.960;2023-08-08T10:37:11;94891.22;;;19.96;65.99
23363;BME280;11853;48.080;11.960;2023-08-08T10:39:37;94897.44;;;20.03;65.47
23363;BME280;11853;48.080;11.960;2023-08-08T10:42:18;94896.16;;;20.13;64.45
23363;BME280;11853;48.080;11.960;2023-08-08T10:44:54;94886.84;;;20.15;63.92
23363;BME280;11853;48.080;11.960;2023-08-08T10:47:35;94890.56;;;20.08;62.17
23363;BME280;11853;48.080;11.960;2023-08-08T10:50:10;94885.38;;;20.13;65.14
23363;BME280;11853;48.080;11.960;2023-08-08T10:55:22;94876.22;;;20.27;60.29
23363;BME280;11853;48.080;11.960;2023-08-08T10:57:59;94877.66;;;20.36;64.01
23363;BME280;11853;48.080;11.960;2023-08-08T11:00:30;94884.44;;;20.45;65.26
23363;BME280;11853;48.080;11.960;2023-08-08T11:02:57;94891.50;;;20.53;63.27
23363;BME280;11853;48.080;11.960;2023-08-08T11:05:23;94878.84;;;20.54;61.23
23363;BME280;11853;48.080;11.960;2023-08-08T11:10:15;94881.50;;;20.67;62.73
23363;BME280;11853;48.080;11.960;2023-08-08T11:12:41;94888.72;;;20.73;60.81
23363;BME280;11853;48.080;11.960;2023-08-08T11:15:07;94872.78;;;20.65;60.41
23363;BME280;11853;48.080;11.960;2023-08-08T11:17:33;94879.25;;;20.64;60.78
23363;BME280;11853;48.080;11.960;2023-08-08T11:19:59;94872.44;;;20.55;59.05
23363;BME280;11853;48.080;11.960;2023-08-08T11:22:26;94874.28;;;20.47;58.88
23363;BME280;11853;48.080;11.960;2023-08-08T11:24:52;94876.97;;;20.47;61.15
23363;BME280;11853;48.080;11.960;2023-08-08T11:27:18;94870.53;;;20.48;60.86
23363;BME280;11853;48.080;11.960;2023-08-08T11:29:50;94866.00;;;20.49;59.87
23363;BME280;11853;48.080;11.960;2023-08-08T11:32:16;94861.66;;;20.41;58.28
23363;BME280;11853;48.080;11.960;2023-08-08T11:34:41;94862.94;;;20.32;58.43
23363;BME280;11853;48.080;11.960;2023-08-08T11:37:08;94874.13;;;20.36;59.08
23363;BME280;11853;48.080;11.960;2023-08-08T11:39:34;94871.00;;;20.39;58.08
23363;BME280;11853;48.080;11.960;2023-08-08T11:42:00;94864.16;;;20.36;59.06
23363;BME280;11853;48.080;11.960;2023-08-08T11:44:26;94851.34;;;20.32;58.65
23363;BME280;11853;48.080;11.960;2023-08-08T11:46:52;94858.59;;;20.31;59.08
23363;BME280;11853;48.080;11.960;2023-08-08T11:49:18;94858.78;;;20.36;60.72
23363;BME280;11853;48.080;11.960;2023-08-08T11:51:44;94851.75;;;20.35;61.10
23363;BME280;11853;48.080;11.960;2023-08-08T11:54:10;94854.38;;;20.48;61.96
23363;BME280;11853;48.080;11.960;2023-08-08T11:56:37;94852.09;;;20.52;60.01
23363;BME280;11853;48.080;11.960;2023-08-08T11:59:04;94844.88;;;20.53;58.70
23363;BME280;11853;48.080;11.960;2023-08-08T12:01:32;94845.47;;;20.55;57.93
23363;BME280;11853;48.080;11.960;2023-08-08T12:04:03;94849.38;;;20.59;56.92
23363;BME280;11853;48.080;11.960;2023-08-08T12:06:29;94843.97;;;20.65;57.47
23363;BME280;11853;48.080;11.960;2023-08-08T12:08:55;94840.81;;;20.68;57.93
23363;BME280;11853;48.080;11.960;2023-08-08T12:11:21;94838.75;;;20.70;57.42
23363;BME280;11853;48.080;11.960;2023-08-08T12:13:47;94837.88;;;20.77;60.00
23363;BME280;11853;48.080;11.960;2023-08-08T12:16:13;94831.41;;;20.84;60.37
23363;BME280;11853;48.080;11.960;2023-08-08T12:18:40;94832.03;;;20.86;58.66
23363;BME280;11853;48.080;11.960;2023-08-08T12:21:09;94832.84;;;20.87;58.90
23363;BME280;11853;48.080;11.960;2023-08-08T12:23:36;94836.56;;;20.86;57.26
23363;BME280;11853;48.080;11.960;2023-08-08T12:26:05;94839.13;;;20.81;59.47
23363;BME280;11853;48.080;11.960;2023-08-08T12:28:32;94838.69;;;20.77;57.05
23363;BME280;11853;48.080;11.960;2023-08-08T12:30:58;94832.09;;;20.73;58.08
23363;BME280;11853;48.080;11.960;2023-08-08T12:33:24;94832.53;;;20.70;57.41
23363;BME280;11853;48.080;11.960;2023-08-08T12:35:50;94822.56;;;20.70;57.91
23363;BME280;11853;48.080;11.960;2023-08-08T12:38:15;94816.97;;;20.72;57.08
23363;BME280;11853;48.080;11.960;2023-08-08T12:40:41;94822.13;;;20.74;56.23
23363;BME280;11853;48.080;11.960;2023-08-08T12:43:09;94820.25;;;20.74;57.61
23363;BME280;11853;48.080;11.960;2023-08-08T12:45:34;94820.50;;;20.73;53.94
23363;BME280;11853;48.080;11.960;2023-08-08T12:48:00;94814.72;;;20.69;55.83
23363;BME280;11853;48.080;11.960;2023-08-08T12:50:25;94812.84;;;20.69;56.58
23363;BME280;11853;48.080;11.960;2023-08-08T12:52:51;94817.53;;;20.81;58.79